createdAt,value
2017-07-09T00:07:00.739Z,18
2017-07-09T00:17:15.264Z,17.9
2017-07-09T00:27:29.391Z,17.9
2017-07-09T00:37:43.700Z,17.7
2017-07-09T00:47:58.497Z,17.5
2017-07-09T00:58:14.026Z,17.4
2017-07-09T01:08:28.761Z,17.4
2017-07-09T01:18:44.248Z,17.3
2017-07-09T01:28:58.559Z,17.2
2017-07-09T01:39:12.711Z,17.1
2017-07-09T01:49:26.624Z,17.1
2017-07-09T01:59:40.406Z,17.1
2017-07-09T02:09:55.441Z,17.1
2017-07-09T02:20:09.932Z,17
2017-07-09T02:30:23.948Z,16.9
2017-07-09T02:40:38.222Z,16.9
2017-07-09T02:50:53.402Z,16.6
2017-07-09T03:01:07.655Z,16.6
2017-07-09T03:11:22.118Z,16.4
2017-07-09T03:21:36.928Z,16.4
2017-07-09T03:31:52.663Z,16.5
2017-07-09T03:42:07.488Z,16.4
2017-07-09T03:52:23.206Z,16.2
2017-07-09T04:02:38.022Z,16.2
2017-07-09T04:12:53.559Z,16
2017-07-09T04:23:09.294Z,16
2017-07-09T04:33:24.781Z,16
2017-07-09T04:43:39.628Z,16.2
2017-07-09T04:53:55.136Z,16.2
2017-07-09T05:04:10.247Z,16.5
2017-07-09T05:14:26.061Z,16.8
2017-07-09T05:24:40.803Z,16.7
2017-07-09T05:34:54.951Z,16.9
2017-07-09T05:45:10.078Z,17.3
2017-07-09T05:55:25.065Z,17.7
2017-07-09T06:05:40.313Z,17.9
2017-07-09T06:15:55.253Z,18.1
2017-07-09T06:26:10.064Z,17.6
2017-07-09T06:36:24.811Z,17.7
2017-07-09T06:46:40.597Z,18.6
2017-07-09T06:56:56.110Z,19.6
2017-07-09T07:07:10.479Z,19.8
2017-07-09T07:17:25.018Z,20.4
2017-07-09T07:27:40.214Z,21.7
2017-07-09T07:37:55.210Z,21.6
2017-07-09T07:48:10.910Z,21.8
2017-07-09T07:58:26.049Z,21.4
2017-07-09T08:08:40.212Z,21
2017-07-09T08:18:54.224Z,21.9
2017-07-09T08:29:08.439Z,22.3
2017-07-09T08:39:22.635Z,23
2017-07-09T08:49:37.990Z,22.9
2017-07-09T08:59:51.915Z,23.3
2017-07-09T09:10:06.313Z,24.4
2017-07-09T09:20:21.884Z,24.6
2017-07-09T09:30:36.008Z,26.4
2017-07-09T09:40:50.730Z,24.5
2017-07-09T09:51:06.270Z,24
2017-07-09T10:01:20.377Z,24.2
2017-07-09T10:11:36.357Z,23.5
2017-07-09T10:21:52.174Z,23.3
2017-07-09T10:32:07.006Z,25.1
2017-07-09T10:42:22.034Z,25.7
2017-07-09T10:52:37.185Z,25.3
2017-07-09T11:02:52.630Z,25.6
2017-07-09T11:13:07.600Z,27.7
2017-07-09T11:23:21.825Z,25
2017-07-09T11:33:36.512Z,26
2017-07-09T11:43:52.181Z,27
2017-07-09T11:54:08.078Z,26.7
2017-07-09T12:04:23.388Z,25.8
2017-07-09T12:14:38.290Z,27.6
2017-07-09T12:24:52.412Z,27.3
2017-07-09T12:35:07.715Z,27.7
2017-07-09T12:45:23.391Z,29.3
2017-07-09T12:55:39.389Z,29.1
2017-07-09T13:05:54.220Z,28.5
2017-07-09T13:16:09.342Z,27.8
2017-07-09T13:26:24.222Z,27.8
2017-07-09T13:36:38.053Z,27.9
2017-07-09T13:46:52.811Z,30.4
2017-07-09T13:57:06.962Z,27.3
2017-07-09T14:07:21.632Z,28
2017-07-09T14:17:36.503Z,27
2017-07-09T14:27:52.123Z,28.7
2017-07-09T14:38:06.417Z,29.7
2017-07-09T14:48:20.568Z,27.5
2017-07-09T14:58:36.151Z,26.2
2017-07-09T15:08:50.680Z,25.9
2017-07-09T15:19:05.986Z,25.7
2017-07-09T15:29:20.092Z,25.9
2017-07-09T15:39:35.047Z,26
2017-07-09T15:49:50.701Z,26
2017-07-09T16:00:05.320Z,25.9
2017-07-09T16:10:19.234Z,27.2
2017-07-09T16:20:34.063Z,26.4
2017-07-09T16:30:49.973Z,25.6
2017-07-09T16:41:04.497Z,25.5
2017-07-09T16:51:20.010Z,26.7
2017-07-09T17:01:35.178Z,26.9
2017-07-09T17:11:49.517Z,26.2
2017-07-09T17:22:03.975Z,26
2017-07-09T17:32:18.856Z,25.9
2017-07-09T17:42:33.528Z,25.9
2017-07-09T17:52:47.718Z,25.5
2017-07-09T18:03:03.649Z,25.1
2017-07-09T18:13:18.470Z,24.6
2017-07-09T18:23:34.191Z,24.2
2017-07-09T18:33:48.773Z,24
2017-07-09T18:44:02.728Z,23.6
2017-07-09T18:54:16.731Z,23.4
2017-07-09T19:04:31.348Z,22.8
2017-07-09T19:14:45.350Z,22.2
2017-07-09T19:25:00.187Z,22.1
2017-07-09T19:35:15.051Z,22.2
2017-07-09T19:45:30.574Z,22.4
2017-07-09T19:55:46.154Z,22.2
2017-07-09T20:06:01.238Z,21.8
2017-07-09T20:16:16.177Z,21.9
2017-07-09T20:26:31.617Z,21.4
2017-07-09T20:36:46.609Z,21.5
2017-07-09T20:47:00.395Z,21.5
2017-07-09T20:57:15.546Z,21.3
2017-07-09T21:07:30.458Z,21.2
2017-07-09T21:17:45.630Z,21.1
2017-07-09T21:28:01.335Z,21.1
2017-07-09T21:38:16.958Z,21
2017-07-09T21:48:31.167Z,20.7
2017-07-09T21:58:45.211Z,20.4
2017-07-09T22:09:00.469Z,19.9
2017-07-09T22:19:14.743Z,19.5
2017-07-09T22:29:29.420Z,19.2
2017-07-09T22:39:44.697Z,19
2017-07-09T22:49:58.618Z,19
2017-07-09T23:00:13.929Z,18.9
2017-07-09T23:10:28.891Z,18.7
2017-07-09T23:20:44.418Z,18.6
2017-07-09T23:30:59.091Z,18.4
2017-07-09T23:41:14.801Z,18.2
2017-07-09T23:51:30.003Z,17.9
